Stunt Ranch Reserve, Santa Monica Mtns, California Weather observations

Data are for 10 minute period ending at time listed.
 Day   Time   Solar   Ave.   Ave.  Ave.  Vector  Max.   Baro.   Total    
  of    of     Rad.   Air    Rel.  Wind   Wind   Wind  Press.  Precip.   
Year   Day            Temp.  Hum.  Speed  Dir.   Gust                    
2020   (PST)  Kw/m2    F      %     mph   deg.    mph    mb.     in.     
-------------------------------------------------------------------------
  87    4:10   0.00   40.4    60    1.8   189     3.7   970.8    0.00 
  87    4:20   0.00   40.7    60    0.9   209     2.2   970.8    0.00 
  87    4:30   0.00   40.7    61    2.0   155     4.7   970.8    0.00 
  87    4:40   0.00   42.1    56    0.9   206     2.9   970.8    0.00 
  87    4:50   0.00   41.7    60    0.7    58     2.7   970.9    0.00 
  87    5:00   0.00   39.4    66    3.0   143     4.5   971.0    0.00 
  87    5:10   0.00   39.6    66    3.2   184     4.8   971.0    0.00 
  87    5:20   0.00   40.0    64    2.9   182     4.4   971.1    0.00 
  87    5:30   0.00   41.4    59    1.5   208     3.5   971.2    0.00 
  87    5:40   0.00   41.4    61    1.2   246     2.8   971.3    0.00 
  87    5:50   0.00   40.3    65    2.4   213     4.6   971.4    0.00 
  87    6:00   0.01   40.4    64    3.1   194     4.5   971.6    0.00 
  87    6:10   0.01   40.8    63    2.2   166     5.0   971.7    0.00 
  87    6:20   0.02   41.6    61    1.4   174     2.6   971.8    0.00 
  87    6:30   0.02   42.3    59    1.1   199     3.7   971.9    0.00 
  87    6:40   0.04   42.3    58    1.4   201     3.6   972.1    0.00 
  87    6:50   0.14   44.8    56    0.3   148     1.5   972.2    0.00 
  87    7:00   0.17   48.7    48    0.2   119     1.0   972.4    0.00 
  87    7:10   0.21   50.1    50    1.4    99     4.0   972.5    0.00 
  87    7:20   0.24   48.1    53    2.0    98     3.4   972.6    0.00 
  87    7:30   0.28   49.0    51    1.3   100     2.8   972.8    0.00 
  87    7:40   0.32   50.7    48    1.1   106     3.1   972.9    0.00 
  87    7:50   0.32   53.2    45    2.2   280     3.3   972.9    0.00 
  87    8:00   0.36   54.8    41    1.7   284     3.7   973.0    0.00 
  87    8:10   0.42   54.4    42    1.7   311     3.4   973.1    0.00 
  87    8:20   0.46   55.3    42    1.4   315     2.9   973.3    0.00 
  87    8:30   0.50   55.6    40    1.8   317     4.7   973.3    0.00 
  87    8:40   0.53   56.2    40    3.4   325     9.1   973.4    0.00 
  87    8:50   0.56   56.3    36    2.4   328     5.3   973.5    0.00 
  87    9:00   0.59   55.9    37    2.8    13     6.1   973.5    0.00 
  87    9:10   0.62   56.9    38    3.5   329     7.2   973.6    0.00 
  87    9:20   0.65   57.3    37    2.9   292     6.7   973.6    0.00 
  87    9:30   0.68   56.9    36    3.2   326     8.7   973.7    0.00 
  87    9:40   0.70   57.3    40    4.3   266     7.9   973.7    0.00 
  87    9:50   0.73   57.4    38    2.7   247     6.3   973.7    0.00 
  87   10:00   0.75   58.7    33    2.2   349     7.2   973.9    0.00 
  87   10:10   0.77   59.2    32    2.3   279     5.5   973.9    0.00 
  87   10:20   0.79   59.0    38    3.3   265     8.6   973.9    0.00 
  87   10:30   0.81   59.1    37    3.6   280     8.5   974.0    0.00 
  87   10:40   0.82   59.9    36    7.0   266    14.1   973.9    0.00 
  87   10:50   0.84   59.8    34    4.1   263     9.7   973.9    0.00 
  87   11:00   0.85   60.6    36    3.9   262     9.6   973.9    0.00 
  87   11:10   0.86   60.5    35    4.9   272    11.2   973.9    0.00 
  87   11:20   0.87   62.7    35    3.9   286     9.9   973.7    0.00 
  87   11:30   0.88   62.6    31    4.0   263    11.1   973.7    0.00 
  87   11:40   0.89   61.8    33    3.3   287    10.2   973.6    0.00 
  87   11:50   0.89   62.2    33    2.8   267     9.6   973.4    0.00 
  87   12:00   0.89   64.1    31    4.1   295    10.4   973.3    0.00 
  87   12:10   0.89   63.8    30    4.8   262    13.8   973.3    0.00 
  87   12:20   0.89   62.1    31    5.2   250     9.7   973.2    0.00 
  87   12:30   0.85   62.1    31    4.6   276    12.6   973.2    0.00 
  87   12:40   0.88   63.6    31    4.1   282    11.2   973.2    0.00 
  87   12:50   0.88   64.0    28    5.7   268    14.4   973.2    0.00 
  87   13:00   0.87   63.2    30    5.0   271    11.0   973.1    0.00 
  87   13:10   0.86   65.3    30    4.4   300    10.8   973.0    0.00 
  87   13:20   0.85   65.8    29    4.5   268    10.7   973.0    0.00 
  87   13:30   0.83   63.3    30    3.1   304    10.7   972.8    0.00 
  87   13:40   0.81   64.0    34    5.5   272    12.9   972.7    0.00 
  87   13:50   0.80   65.6    33    4.7   286    12.7   972.6    0.00 
  87   14:00   0.78   65.0    33    6.5   276    16.2   972.6    0.00 
  87   14:10   0.72   65.1    34    4.2   280    13.8   972.6    0.00 
  87   14:20   0.74   64.9    35    3.5   286    10.4   972.5    0.00 
  87   14:30   0.71   65.8    33    4.1   282    13.4   972.6    0.00 
  87   14:40   0.69   65.1    37    4.5   280    11.4   972.6    0.00 
  87   14:50   0.66   64.9    35    6.1   270    14.2   972.6    0.00 
  87   15:00   0.64   63.0    37    4.4   270    14.6   972.6    0.00 
  87   15:10   0.61   62.8    37    6.7   258    14.0   972.6    0.00 
  87   15:20   0.58   61.7    39    5.7   264    14.2   972.6    0.00 
  87   15:30   0.55   62.6    41    6.3   272    12.4   972.7    0.00 
  87   15:40   0.40   62.3    42    7.0   269    16.5   972.8    0.00 
  87   15:50   0.49   61.1    44    3.3   280    11.7   972.9    0.00 
  87   16:00   0.45   62.2    42    3.6   300    10.1   972.9    0.00 
  87   16:10   0.37   62.5    42    2.5   286     8.8   973.0    0.00 
  87   16:20   0.37   62.0    42    2.7   286     9.1   973.1    0.00 
  87   16:30   0.34   61.4    44    4.2   281    11.9   973.1    0.00 
  87   16:40   0.30   60.5    45    3.5   282    11.7   973.2    0.00 
  87   16:50   0.26   59.8    46    2.2   285     8.4   973.3    0.00 
  87   17:00   0.23   59.0    48    2.6   307     9.6   973.5    0.00 
  87   17:10   0.19   58.1    51    1.7   297     8.3   973.6    0.00 
  87   17:20   0.15   56.8    53    2.2   283     9.1   973.6    0.00 
  87   17:30   0.12   55.7    55    1.9   273     8.3   973.7    0.00 
  87   17:40   0.09   54.4    59    3.5   277    11.9   973.8    0.00 
  87   17:50   0.05   53.6    61    1.7   294     5.7   973.8    0.00 
  87   18:00   0.02   52.5    65    1.4   303     5.6   973.9    0.00 
  87   18:10   0.01   51.6    67    0.6   291     3.9   974.0    0.00 
  87   18:20   0.00   50.6    70    1.2   247     3.7   974.1    0.00 
  87   18:30   0.00   50.0    71    0.9   264     3.1   974.2    0.00 
  87   18:40   0.00   49.6    73    1.9   250     4.5   974.3    0.00 
  87   18:50   0.00   49.4    73    2.4   234     6.4   974.5    0.00 
  87   19:00   0.00   49.3    74    2.6   240     5.3   974.6    0.00 
  87   19:10   0.00   49.3    74    2.5   211     4.5   974.6    0.00 
  87   19:20   0.00   48.8    75    3.6   206     5.8   974.7    0.00 
  87   19:30   0.00   48.5    76    1.6   210     3.4   974.8    0.00 
  87   19:40   0.00   48.4    77    1.2   206     3.7   975.0    0.00 
  87   19:50   0.00   48.4    77    3.4   200     5.0   975.1    0.00 
  87   20:00   0.00   48.3    77    3.4   205     5.1   975.1    0.00 
  87   20:10   0.00   48.3    77    3.3   217     4.7   975.2    0.00 
  87   20:20   0.00   48.1    78    1.7   205     3.1   975.4    0.00 
  87   20:30   0.00   47.6    79    2.7   219     4.5   975.6    0.00 
  87   20:40   0.00   47.7    79    1.4   198     3.7   975.7    0.00 
  87   20:50   0.00   47.1    80    3.3   207     4.5   975.8    0.00 
  87   21:00   0.00   47.2    80    2.2   217     3.9   975.8    0.00 
  87   21:10   0.00   47.0    81    2.5   191     4.2   975.8    0.00 
  87   21:20   0.00   47.1    81    3.0   191     4.5   975.9    0.00 
  87   21:30   0.00   46.6    82    3.9   184     6.5   975.8    0.00 
  87   21:40   0.00   46.6    82    3.6   202     5.5   975.8    0.00 
  87   21:50   0.00   46.3    83    0.9   233     2.8   975.7    0.00 
  87   22:00   0.00   45.5    85    1.2   232     2.8   975.7    0.00 
  87   22:10   0.00   46.3    82    2.1   165     4.7   975.6    0.00 
  87   22:20   0.00   45.5    78    3.2   139     6.1   975.5    0.00 
  87   22:30   0.00   46.1    76    1.6   120     3.9   975.6    0.00 
  87   22:40   0.00   46.6    75    1.5    87     2.4   975.6    0.00 
  87   22:50   0.00   46.8    75    2.0   119     3.4   975.6    0.00 
  87   23:00   0.00   46.7    76    0.4   113     2.0   975.6    0.00 
  87   23:10   0.00   47.0    74    1.4   125     2.6   975.5    0.00 
  87   23:20   0.00   46.5    72    1.2    80     2.8   975.6    0.00 
  87   23:30   0.00   47.0    71    1.1   271     2.0   975.5    0.00 
  87   23:40   0.00   46.8    72    1.3   289     1.9   975.5    0.00 
  87   23:50   0.00   46.7    72    1.4   273     2.3   975.6    0.00 
  88    0:00   0.00   46.2    72    1.0   272     1.8   975.6    0.00 
  88    0:10   0.00   45.8    74    1.0   287     2.6   975.6    0.00 
  88    0:20   0.00   45.4    77    1.1   296     2.7   975.6    0.00 
  88    0:30   0.00   45.5    78    0.4   170     1.8   975.5    0.00 
  88    0:40   0.00   45.6    78    1.3   266     2.6   975.4    0.00 
  88    0:50   0.00   45.5    75    2.4   263     3.7   975.4    0.00 
  88    1:00   0.00   46.0    70    3.4   269     5.3   975.4    0.00 
  88    1:10   0.00   44.6    78    2.1   266     4.2   975.4    0.00 
  88    1:20   0.00   44.6    77    1.1   295     2.6   975.4    0.00 
  88    1:30   0.00   44.0    78    1.0   284     2.6   975.4    0.00 
  88    1:40   0.00   44.0    77    2.8   281     4.4   975.4    0.00 
  88    1:50   0.00   43.8    79    1.3   282     3.3   975.2    0.00 
  88    2:00   0.00   44.3    77    0.6   310     2.0   975.2    0.00 
  88    2:10   0.00   44.0    78    2.0   279     3.9   975.1    0.00 
  88    2:20   0.00   43.9    81    0.8     0     2.3   975.1    0.00 
  88    2:30   0.00   43.8    80    0.6   309     2.1   975.1    0.00 
  88    2:40   0.00   44.2    81    1.3   328     3.5   975.1    0.00 
  88    2:50   0.00   44.7    79    0.5   206     2.3   975.0    0.00 
  88    3:00   0.00   43.9    81    1.3   285     2.6   975.0    0.00 
  88    3:10   0.00   43.6    83    2.8   295     5.3   974.9    0.00 
  88    3:20   0.00   43.5    87    2.1   287     3.7   974.9    0.00 
  88    3:30   0.00   43.8    88    1.5     6     4.1   974.9    0.00 
  88    3:40   0.00   43.6    88    1.8   121     4.3   974.8    0.00 
  88    3:50   0.00   44.0    90    1.9     8     4.1   974.8    0.00 
  88    4:00   0.00   45.4    90    1.6    55     5.3   975.0    0.00 

Return to Stunt Ranch Reserve graphs page.


Western Regional Climate Center,wrcc@dri.edu